»·PEaware :: DAL172 KPHX-KSAN

DAL172 :: KPHX-KSAN

FLIGHT INFORMATION

Flight Status: Arrived
Operator:
Delta Air Lines
More flights by this operator :: More flights under this callsign
Pilot: Tim M. (868)
Aircraft: BOEING 737-700
(B737)
More flights by this aircraft type
Origin: KPHX Phoenix Sky Harbor Intl
United States
Destination: KSAN San Diego Intl-Lindbergh
United States
More flights between these airports :: More routes between these airports
Route: FYRBD1 MOHAK J2 HOGGZ LUCKI1
File this flight plan on PilotEdge
Remarks:
Altitude:
(Current/Filed)
38,000ft
Speed:
(Current/Filed)
449kts
Departed: 22-Aug-20 05:21 PM
Arrived: 22-Aug-20 06:10 PM
Distance/Time
Traveled:
264nm/0:48
Distance/Time
To Go:
Arrived

Flight Plot

Page will automatically refresh every two minutes.

Flight plan parsing failed; only flown route is shown


Map Options




Map Legend


Flown Route
Filed Route
Departure Airport
Arrival Airport
Navaid (VOR, NDB)
Fix

Horizontal Profiles

Position Reports

Time Latitude Longitude Heading Altitude Ground
Speed
22-Aug-20 16:43 33.433285 -112.009483 99 1143ft 0kts
22-Aug-20 16:44 33.433285 -112.009483 99 1143ft 0kts
22-Aug-20 16:45 33.433285 -112.009483 99 1143ft 0kts
22-Aug-20 16:46 33.433285 -112.009483 99 1143ft 0kts
22-Aug-20 16:47 33.433285 -112.009483 99 1143ft 0kts
22-Aug-20 16:48 33.433285 -112.009483 99 1143ft 0kts
22-Aug-20 16:49 33.433285 -112.009483 99 1143ft 0kts
22-Aug-20 16:50 33.433285 -112.009483 99 1143ft 0kts
22-Aug-20 16:51 33.433285 -112.009483 99 1143ft 0kts
22-Aug-20 16:52 33.433285 -112.009483 99 1143ft 0kts
22-Aug-20 16:53 33.433285 -112.009483 99 1143ft 0kts
22-Aug-20 16:54 33.433285 -112.009483 99 1143ft 0kts
22-Aug-20 16:55 33.433285 -112.009483 99 1143ft 0kts
22-Aug-20 16:56 33.433285 -112.009483 99 1143ft 0kts
22-Aug-20 16:57 33.433285 -112.009483 99 1143ft 0kts
22-Aug-20 16:58 33.433285 -112.009483 99 1143ft 0kts
22-Aug-20 16:59 33.433285 -112.009483 99 1143ft 0kts
22-Aug-20 17:00 33.433285 -112.009483 99 1143ft 0kts
22-Aug-20 17:01 33.433285 -112.009483 99 1143ft 0kts
22-Aug-20 17:02 33.433285 -112.009483 99 1143ft 0kts
22-Aug-20 17:03 33.433285 -112.009483 99 1143ft 0kts
22-Aug-20 17:04 33.433285 -112.009483 99 1143ft 0kts
22-Aug-20 17:05 33.433285 -112.009483 99 1143ft 0kts
22-Aug-20 17:06 33.433285 -112.009483 99 1143ft 0kts
22-Aug-20 17:07 33.433304 -112.009629 98 1143ft 2kts
22-Aug-20 17:08 33.433738 -112.009963 179 1143ft 2kts
22-Aug-20 17:09 33.434024 -112.009964 179 1143ft 0kts
22-Aug-20 17:10 33.434023 -112.009964 179 1143ft 0kts
22-Aug-20 17:11 33.434021 -112.009964 179 1143ft 0kts
22-Aug-20 17:12 33.432156 -112.009847 111 1143ft 12kts
22-Aug-20 17:13 33.432112 -112.005295 90 1143ft 12kts
22-Aug-20 17:14 33.432109 -112.000985 90 1143ft 12kts
22-Aug-20 17:16 33.432112 -111.996937 88 1143ft 11kts
22-Aug-20 17:17 33.431976 -111.993638 161 1143ft 3kts
22-Aug-20 17:18 33.431953 -111.993630 163 1143ft 0kts
22-Aug-20 17:19 33.431952 -111.993630 163 1143ft 0kts
22-Aug-20 17:20 33.431028 -111.993678 239 1143ft 10kts
22-Aug-20 17:21 33.431116 -112.019505 270 1442ft 149kts
22-Aug-20 17:22 33.428451 -112.071266 253 3444ft 177kts
22-Aug-20 17:23 33.408104 -112.138668 249 4510ft 255kts
22-Aug-20 17:24 33.354754 -112.190264 174 7154ft 286kts
22-Aug-20 17:25 33.280146 -112.151210 176 10486ft 299kts
22-Aug-20 17:26 33.213244 -112.218148 234 12890ft 357kts
22-Aug-20 17:27 33.156861 -112.319472 234 16302ft 374kts
22-Aug-20 17:28 33.098572 -112.426111 234 19536ft 392kts
22-Aug-20 17:29 33.036181 -112.536314 234 22367ft 408kts
22-Aug-20 17:30 32.971590 -112.650536 240 24747ft 423kts
22-Aug-20 17:31 32.940704 -112.787350 260 26870ft 436kts
22-Aug-20 17:32 32.921304 -112.931847 260 28717ft 447kts
22-Aug-20 17:33 32.901052 -113.079107 260 30361ft 455kts
22-Aug-20 17:33 32.884331 -113.203858 260 31744ft 457kts
22-Aug-20 17:35 32.860764 -113.376150 261 34161ft 447kts
22-Aug-20 17:36 32.840259 -113.521590 261 35915ft 445kts
22-Aug-20 17:36 32.823104 -113.642036 261 37287ft 441kts
22-Aug-20 17:37 32.802699 -113.786603 261 37838ft 445kts
22-Aug-20 17:39 32.778695 -113.954324 262 37847ft 440kts
22-Aug-20 17:39 32.774988 -114.075703 270 37854ft 440kts
22-Aug-20 17:40 32.781128 -114.220629 272 37866ft 440kts
22-Aug-20 17:41 32.787954 -114.366185 277 37878ft 440kts
22-Aug-20 17:42 32.820632 -114.506190 287 37872ft 440kts
22-Aug-20 17:43 32.858344 -114.643885 287 37843ft 441kts
22-Aug-20 17:44 32.878095 -114.787658 269 37777ft 439kts
22-Aug-20 17:45 32.874611 -114.932256 267 35333ft 438kts
22-Aug-20 17:46 32.871682 -115.076459 266 32521ft 435kts
22-Aug-20 17:47 32.868251 -115.211118 266 30378ft 422kts
22-Aug-20 17:48 32.863817 -115.348517 262 28131ft 409kts
22-Aug-20 17:49 32.845460 -115.479739 258 25867ft 398kts
22-Aug-20 17:50 32.824858 -115.608586 257 23922ft 398kts
22-Aug-20 17:51 32.803688 -115.736468 256 22071ft 391kts
22-Aug-20 17:52 32.783443 -115.861921 260 20212ft 380kts
22-Aug-20 17:53 32.775017 -115.985128 263 18416ft 367kts
22-Aug-20 17:54 32.766082 -116.104883 262 16725ft 361kts
22-Aug-20 17:55 32.756947 -116.222683 262 15034ft 355kts
22-Aug-20 17:56 32.748030 -116.339006 262 13362ft 348kts
22-Aug-20 17:57 32.739099 -116.452532 263 11716ft 338kts
22-Aug-20 17:58 32.730664 -116.549904 262 10233ft 320kts
22-Aug-20 17:59 32.721108 -116.647570 262 8988ft 284kts
22-Aug-20 18:00 32.713654 -116.740159 264 7224ft 276kts
22-Aug-20 18:01 32.704431 -116.828415 253 5931ft 260kts
22-Aug-20 18:02 32.680856 -116.905890 250 4614ft 238kts
22-Aug-20 18:03 32.680440 -116.973441 293 3703ft 190kts
22-Aug-20 18:04 32.693820 -117.027922 282 2818ft 148kts
22-Aug-20 18:05 32.704689 -117.070069 284 2216ft 132kts
22-Aug-20 18:06 32.715271 -117.113510 283 1299ft 129kts
22-Aug-20 18:07 32.725250 -117.155297 284 564ft 137kts
22-Aug-20 18:08 32.734607 -117.194068 284 25ft 68kts
22-Aug-20 18:09 32.735395 -117.201765 113 25ft 9kts
22-Aug-20 18:10 32.734475 -117.197753 105 25ft 13kts
22-Aug-20 18:11 32.733606 -117.195879 201 25ft 4kts
22-Aug-20 18:12 32.733250 -117.196023 199 25ft 0kts
22-Aug-20 18:13 32.733250 -117.196023 199 25ft 0kts
22-Aug-20 18:14 32.733250 -117.196023 199 25ft 0kts
22-Aug-20 18:15 32.733250 -117.196023 199 25ft 0kts
22-Aug-20 18:16 32.733250 -117.196023 199 25ft 0kts
22-Aug-20 18:17 32.733250 -117.196023 199 25ft 0kts
22-Aug-20 18:18 32.733250 -117.196023 199 25ft 0kts
22-Aug-20 18:19 32.733250 -117.196023 199 25ft 0kts
22-Aug-20 18:20 32.733250 -117.196023 199 25ft 0kts
22-Aug-20 18:21 32.733250 -117.196023 199 25ft 0kts
22-Aug-20 18:22 32.733250 -117.196023 199 25ft 0kts

Navigation Log

Ident Type
Flight plan parsing failed, navigation log unavailable